AGROMETEOROLOŠKI PORTAL

vinorodna pokrajina

Temelj dobrega kmetovanja

Pregled podatkov za lokacijo PTUJ - ARSO, meteorološka postaja 129

Pregled senzorjev na lokaciji

ID Ime Zadnja
vrednost
Datum in čas
meritve
(lokalni čas)
Tip
senzorja
2908 Padavine (mm) 0 mm 4.10.2022 16:00 ARSO
2916 Relativna zračna vlaga (2 m) (% RH) 42 % RH 4.10.2022 16:00 ARSO
2915 Temperatura (2 m) (°C) 18,8 °C 4.10.2022 16:00 ARSO
2920 Smer vetra (2 m) (°) 95 ° 4.10.2022 16:00 ARSO
2921 Hitrost vetra (2 m) (km/h) 5 km/h 4.10.2022 16:00 ARSO

Pregled podatkov zadnjih 24 ur

Zap.
št.
Datum in čas
(lokalni čas)
PTUJ - ARSO
Padavine Relativna
zračna
vlaga
(2
m)
Temperatura
(2
m)
Smer
vetra
(2
m)
Hitrost
vetra
(2
m)
1 4.10.2022 16:00 0 41,7 18,8 94,9 5,3
2 4.10.2022 15:30 0 42,3 18,9 68 5
3 4.10.2022 15:00 0 39,3 18,8 67,7 3,7
4 4.10.2022 14:30 0 41 18,8 86,4 4,7
5 4.10.2022 14:00 0 39 18,6 221,5 3,5
6 4.10.2022 13:30 0 41 18,3 221,4 5
7 4.10.2022 13:00 0 42 17,8 261,9 4,3
8 4.10.2022 12:30 0 46,3 17,2 279,7 6
9 4.10.2022 12:00 0 53 16,6 250,8 5,3
10 4.10.2022 11:30 0 65,3 14,9 301 3
11 4.10.2022 11:00 0 71,3 13,5 310,4 3
12 4.10.2022 10:30 0 77,7 11,7 276,3 4,7
13 4.10.2022 10:00 0 84 10,1 269 5,7
14 4.10.2022 09:30 0 93,3 8,4 284,6 4
15 4.10.2022 09:00 0 96 7 272,9 2,3
16 4.10.2022 08:30 0 96,3 6,3 277 4
17 4.10.2022 08:00 0 98,7 5,4 244,7 3,3
18 4.10.2022 07:30 0 97,7 3,7 270,9 3
19 4.10.2022 07:00 0 97 3,5 286,7 3
20 4.10.2022 06:30 0 96,7 3,6 286,4 2,3
21 4.10.2022 06:00 0 97,3 4,3 255,1 2,3
22 4.10.2022 05:30 0 97 4 256 3,3
23 4.10.2022 05:00 0 97 4,2 247,3 2
24 4.10.2022 04:30 0 97 4,3 260,7 2,7
25 4.10.2022 04:00 0 97 4,3 265,6 4
26 4.10.2022 03:30 0 97,3 4,2 258,4 4,3
27 4.10.2022 03:00 0 96 4,5 264,7 3,3
28 4.10.2022 02:30 0 96,7 5,2 332,4 1,7
29 4.10.2022 02:00 0 96,3 5,1 290,7 2,7
30 4.10.2022 01:30 0 96,3 5,5 229,8 2
31 4.10.2022 01:00 0 96 5,4 238,2 3,3
32 4.10.2022 00:30 0 95,7 6,3 167,6 2,3
33 4.10.2022 00:00 0 95 6,5 328,7 2,7
34 3.10.2022 23:30 0 94 6,5 357,6 3
35 3.10.2022 23:00 0 92,7 7,3 222,1 2,7
36 3.10.2022 22:30 0 88,5 7,9 251,5 4
37 3.10.2022 22:00 0 83,7 9 293 2,7
38 3.10.2022 21:30 0 81 9,5 263,2 4,3
39 3.10.2022 21:00 0 73,3 11 213,9 4
40 3.10.2022 20:30 0 62 12,5 48,7 5,7
41 3.10.2022 20:00 0 58,7 12,8 40 6,3
42 3.10.2022 19:30 0 59 13,4 23,6 7,3
43 3.10.2022 19:00 0 53,3 14,4 33 6,7
44 3.10.2022 18:30 0 48 15,7 35,3 6,3
45 3.10.2022 18:00 0 46,3 17,2 25,3 7
46 3.10.2022 17:30 0 43,3 18,2 7,4 8,3